Time;durP1;ratioP1;P1;durP2;ratioP2;P2;SDS_P1;SDS_P2;PMS_P1;PMS_P2;Temp;Humidity;BMP_temperature;BMP_pressure;BME280_temperature;BME280_humidity;BME280_pressure;Samples;Min_cycle;Max_cycle;Signal;HPM_P1;HPM_P2
2022/06/01 00:00:18;;;;;;;;;10.00;10.00;;;;;;;;5195878;28;8806;-66
2022/06/01 00:02:49;;;;;;;;;8.25;8.25;;;;;;;;5191794;28;8794;-66
2022/06/01 00:05:39;;;;;;;;;8.00;8.00;;;;;;;;5194184;28;8783;-65
2022/06/01 00:08:10;;;;;;;;;10.75;10.75;;;;;;;;5208065;28;8775;-65
2022/06/01 00:10:41;;;;;;;;;9.75;9.75;;;;;;;;5225393;28;8811;-65
2022/06/01 00:13:12;;;;;;;;;10.25;10.25;;;;;;;;5208994;28;9004;-66
2022/06/01 00:15:43;;;;;;;;;8.33;8.33;;;;;;;;5191475;28;8913;-65
2022/06/01 00:18:14;;;;;;;;;12.80;12.80;;;;;;;;5209775;28;11427;-65
2022/06/01 00:20:46;;;;;;;;;14.20;14.20;;;;;;;;5228400;28;8993;-65
2022/06/01 00:23:17;;;;;;;;;11.25;11.25;;;;;;;;5211734;28;8853;-65
2022/06/01 00:25:48;;;;;;;;;11.25;11.25;;;;;;;;5211958;28;9002;-65
2022/06/01 00:28:19;;;;;;;;;22.60;22.60;;;;;;;;5228228;28;8927;-65
2022/06/01 00:30:50;;;;;;;;;32.00;31.25;;;;;;;;5228357;28;8776;-65
2022/06/01 00:33:22;;;;;;;;;45.40;38.20;;;;;;;;5202476;28;10065;-66
2022/06/01 00:35:53;;;;;;;;;20.80;20.80;;;;;;;;5192652;28;9510;-64
2022/06/01 00:38:24;;;;;;;;;18.80;18.80;;;;;;;;5191377;28;8767;-65
2022/06/01 00:41:13;;;;;;;;;15.80;15.80;;;;;;;;5226988;28;9581;-64
2022/06/01 00:43:44;;;;;;;;;14.20;14.20;;;;;;;;5199857;28;8790;-64
2022/06/01 00:46:34;;;;;;;;;11.40;11.40;;;;;;;;5193687;28;8793;-64
2022/06/01 00:49:13;;;;;;;;;14.00;14.00;;;;;;;;5207247;28;9466;-64
2022/06/01 00:51:45;;;;;;;;;12.40;12.40;;;;;;;;5191273;28;8779;-64
2022/06/01 00:54:16;;;;;;;;;13.75;13.00;;;;;;;;5174731;28;8892;-64
2022/06/01 00:57:13;;;;;;;;;17.75;17.00;;;;;;;;5207567;28;8794;-64
2022/06/01 01:00:09;;;;;;;;;12.80;12.20;;;;;;;;5207209;28;8803;-64
2022/06/01 01:02:40;;;;;;;;;10.00;10.00;;;;;;;;5227100;28;8769;-64
2022/06/01 01:05:13;;;;;;;;;11.75;11.75;;;;;;;;5211512;28;8780;-64
2022/06/01 01:07:44;;;;;;;;;11.00;11.00;;;;;;;;5211499;28;8801;-64
2022/06/01 01:10:16;;;;;;;;;9.00;9.00;;;;;;;;5227652;28;8801;-67
2022/06/01 01:12:56;;;;;;;;;13.00;13.00;;;;;;;;5239977;28;8866;-64
2022/06/01 01:15:58;;;;;;;;;11.00;11.00;;;;;;;;5213970;28;8777;-64
2022/06/01 01:18:30;;;;;;;;;12.00;12.00;;;;;;;;5215462;28;8791;-64
2022/06/01 01:21:06;;;;;;;;;10.50;10.50;;;;;;;;5209201;28;8802;-64
2022/06/01 01:23:56;;;;;;;;;15.50;14.75;;;;;;;;5194780;28;8805;-63
2022/06/01 01:26:48;;;;;;;;;13.50;13.50;;;;;;;;5210777;28;8933;-64
2022/06/01 01:29:32;;;;;;;;;56.60;44.80;;;;;;;;5211427;28;9434;-64
2022/06/01 01:32:05;;;;;;;;;12.50;12.50;;;;;;;;5196222;28;8809;-65
2022/06/01 01:34:38;;;;;;;;;16.25;16.25;;;;;;;;5231681;28;8788;-65
2022/06/01 01:37:12;;;;;;;;;26.80;23.80;;;;;;;;5213022;28;8789;-66
2022/06/01 01:40:01;;;;;;;;;58.60;44.60;;;;;;;;5249156;28;8777;-66
2022/06/01 01:42:34;;;;;;;;;311.25;210.50;;;;;;;;5214842;28;8788;-66
2022/06/01 01:45:13;;;;;;;;;191.50;157.00;;;;;;;;5231144;28;11554;-66
2022/06/01 01:47:44;;;;;;;;;142.50;122.25;;;;;;;;5231175;28;8784;-64
2022/06/01 01:50:15;;;;;;;;;74.50;64.75;;;;;;;;5225023;28;8861;-64
2022/06/01 01:52:47;;;;;;;;;121.00;112.00;;;;;;;;5193762;28;11477;-64
2022/06/01 01:55:21;;;;;;;;;260.75;205.50;;;;;;;;5210529;28;8794;-64
2022/06/01 01:58:14;;;;;;;;;289.25;213.00;;;;;;;;5210108;28;11547;-64
2022/06/01 02:00:48;;;;;;;;;154.25;126.50;;;;;;;;5210393;28;11576;-64
2022/06/01 02:03:22;;;;;;;;;80.60;74.80;;;;;;;;5228136;28;8791;-64
2022/06/01 02:06:09;;;;;;;;;56.60;47.00;;;;;;;;5206813;28;8808;-64
2022/06/01 02:09:01;;;;;;;;;40.20;35.60;;;;;;;;5247286;28;9567;-64
2022/06/01 02:14:54;;;;;;;;;14.00;14.00;;;;;;;;5241454;28;8831;-64
2022/06/01 02:17:51;;;;;;;;;10.33;10.33;;;;;;;;5214703;28;8776;-64
2022/06/01 02:20:48;;;;;;;;;11.50;11.50;;;;;;;;5233582;28;8819;-64
2022/06/01 02:23:19;;;;;;;;;26.80;26.80;;;;;;;;5209575;28;8790;-64
2022/06/01 02:25:53;;;;;;;;;48.80;41.00;;;;;;;;5210400;28;8794;-64
2022/06/01 02:28:24;;;;;;;;;22.00;22.00;;;;;;;;5215553;28;8904;-64
2022/06/01 02:30:56;;;;;;;;;27.20;27.20;;;;;;;;5204786;28;8841;-65
2022/06/01 02:33:32;;;;;;;;;17.25;17.25;;;;;;;;5192160;28;8794;-65
2022/06/01 02:36:06;;;;;;;;;21.20;21.20;;;;;;;;5195330;28;9573;-65
2022/06/01 02:38:57;;;;;;;;;32.60;31.60;;;;;;;;5248192;28;9489;-64
2022/06/01 02:44:17;;;;;;;;;47.40;40.60;;;;;;;;5209565;28;8803;-64
2022/06/01 02:46:48;;;;;;;;;44.40;38.20;;;;;;;;5209628;28;8858;-65
2022/06/01 02:49:19;;;;;;;;;50.60;43.00;;;;;;;;5209222;28;8835;-65
2022/06/01 02:51:51;;;;;;;;;49.20;41.20;;;;;;;;5220664;28;8814;-65
2022/06/01 02:54:22;;;;;;;;;41.40;36.80;;;;;;;;5209138;28;8787;-64
2022/06/01 02:57:14;;;;;;;;;86.20;78.00;;;;;;;;5226997;28;8783;-64
2022/06/01 02:59:45;;;;;;;;;57.40;46.60;;;;;;;;5209249;28;8791;-65
2022/06/01 03:02:40;;;;;;;;;96.40;82.40;;;;;;;;5195022;28;8803;-65
2022/06/01 03:05:11;;;;;;;;;147.20;115.60;;;;;;;;5209615;28;8771;-65
2022/06/01 03:07:43;;;;;;;;;74.80;61.00;;;;;;;;5193430;28;8805;-65
2022/06/01 03:10:14;;;;;;;;;64.20;52.80;;;;;;;;5226720;28;8807;-65
2022/06/01 03:12:46;;;;;;;;;29.40;28.40;;;;;;;;5208662;28;8791;-64
2022/06/01 03:15:19;;;;;;;;;51.00;42.20;;;;;;;;5226456;28;8789;-65
2022/06/01 03:17:50;;;;;;;;;48.80;40.40;;;;;;;;5192385;28;8852;-65
2022/06/01 03:20:23;;;;;;;;;32.40;31.40;;;;;;;;5208888;28;8818;-65
2022/06/01 03:22:55;;;;;;;;;18.40;18.40;;;;;;;;5211028;28;8815;-64
2022/06/01 03:25:27;;;;;;;;;20.25;20.25;;;;;;;;5211893;28;8793;-65
2022/06/01 03:27:59;;;;;;;;;20.00;20.00;;;;;;;;5192107;28;8929;-65
2022/06/01 03:30:31;;;;;;;;;16.50;16.50;;;;;;;;5192495;28;8775;-64
2022/06/01 03:33:03;;;;;;;;;23.50;23.50;;;;;;;;5191983;28;8809;-65
2022/06/01 03:35:34;;;;;;;;;34.80;32.20;;;;;;;;5209495;28;8865;-64
2022/06/01 03:38:06;;;;;;;;;31.40;30.60;;;;;;;;5191705;28;8767;-64
2022/06/01 03:40:42;;;;;;;;;29.00;29.00;;;;;;;;5191873;28;8850;-64
2022/06/01 03:43:13;;;;;;;;;49.80;42.00;;;;;;;;5207921;28;8802;-64
2022/06/01 03:46:04;;;;;;;;;42.20;37.40;;;;;;;;5216829;28;8789;-63
2022/06/01 03:48:35;;;;;;;;;36.40;33.20;;;;;;;;5228493;28;8789;-64
2022/06/01 03:51:06;;;;;;;;;46.25;38.75;;;;;;;;5228651;28;8840;-64
2022/06/01 03:53:37;;;;;;;;;42.75;37.50;;;;;;;;5228762;28;8863;-64
2022/06/01 03:56:09;;;;;;;;;48.00;40.40;;;;;;;;5245397;28;11564;-65
2022/06/01 03:58:40;;;;;;;;;64.00;52.40;;;;;;;;5224792;28;8907;-64
2022/06/01 04:01:30;;;;;;;;;51.40;44.00;;;;;;;;5228338;28;8832;-64
2022/06/01 04:04:01;;;;;;;;;48.20;41.00;;;;;;;;5227110;28;8782;-65
2022/06/01 04:06:32;;;;;;;;;27.80;27.40;;;;;;;;5192489;28;8794;-64
2022/06/01 04:09:03;;;;;;;;;47.75;39.75;;;;;;;;5225481;28;8809;-65
2022/06/01 04:11:34;;;;;;;;;43.20;37.80;;;;;;;;5207656;28;10340;-64
2022/06/01 04:14:05;;;;;;;;;45.00;38.40;;;;;;;;5191201;28;8787;-66
2022/06/01 04:16:55;;;;;;;;;41.20;36.00;;;;;;;;5207971;28;8809;-66
2022/06/01 04:19:26;;;;;;;;;31.60;31.00;;;;;;;;5216721;28;9508;-65
2022/06/01 04:22:16;;;;;;;;;44.80;36.80;;;;;;;;5227863;28;8833;-66
2022/06/01 04:24:47;;;;;;;;;69.80;53.60;;;;;;;;5197934;28;9638;-66
2022/06/01 04:27:18;;;;;;;;;42.60;36.20;;;;;;;;5207573;28;8920;-66
2022/06/01 04:29:49;;;;;;;;;42.40;37.60;;;;;;;;5207695;28;8787;-66
2022/06/01 04:32:26;;;;;;;;;25.00;24.25;;;;;;;;5207693;28;8852;-66
2022/06/01 04:34:57;;;;;;;;;78.40;65.40;;;;;;;;5208478;28;8791;-67
2022/06/01 04:37:28;;;;;;;;;49.60;42.20;;;;;;;;5225532;28;8810;-67
2022/06/01 04:39:59;;;;;;;;;24.50;24.25;;;;;;;;5225328;28;8799;-67
2022/06/01 04:42:30;;;;;;;;;18.33;18.00;;;;;;;;5207427;28;8796;-67
2022/06/01 04:45:01;;;;;;;;;14.00;14.00;;;;;;;;5215171;28;9552;-68
2022/06/01 04:47:33;;;;;;;;;21.00;21.00;;;;;;;;5190960;28;9097;-66
2022/06/01 04:50:22;;;;;;;;;22.25;22.25;;;;;;;;5225091;28;8807;-66
2022/06/01 04:52:54;;;;;;;;;17.25;17.25;;;;;;;;5207457;28;8805;-67
2022/06/01 04:55:25;;;;;;;;;16.25;15.50;;;;;;;;5226033;28;8800;-69
2022/06/01 04:57:55;;;;;;;;;41.50;36.50;;;;;;;;5209256;28;8868;-68
2022/06/01 05:00:26;;;;;;;;;28.67;28.67;;;;;;;;5193360;28;8831;-67
2022/06/01 05:03:01;;;;;;;;;9.00;9.00;;;;;;;;5210296;28;11602;-68
2022/06/01 05:05:34;;;;;;;;;9.00;9.00;;;;;;;;5209563;28;8774;-68
2022/06/01 05:08:07;;;;;;;;;11.00;11.00;;;;;;;;5193053;28;8794;-68
2022/06/01 05:10:38;;;;;;;;;11.25;11.25;;;;;;;;5194106;28;8908;-68
2022/06/01 05:13:10;;;;;;;;;9.50;9.50;;;;;;;;5247789;28;8789;-68
2022/06/01 05:15:46;;;;;;;;;6.50;6.50;;;;;;;;5225509;28;8811;-68
2022/06/01 05:18:17;;;;;;;;;9.25;9.25;;;;;;;;5191630;28;8836;-68
2022/06/01 05:20:48;;;;;;;;;21.00;19.50;;;;;;;;5210627;28;8796;-69
2022/06/01 05:23:20;;;;;;;;;12.75;12.75;;;;;;;;5222449;28;8903;-67
2022/06/01 05:25:52;;;;;;;;;8.25;8.25;;;;;;;;5227481;28;9544;-67
2022/06/01 05:28:26;;;;;;;;;8.50;8.50;;;;;;;;5228521;28;8778;-68
2022/06/01 05:30:58;;;;;;;;;12.00;12.00;;;;;;;;5210777;28;8789;-67
2022/06/01 05:33:29;;;;;;;;;12.50;12.50;;;;;;;;5227278;28;8814;-68
2022/06/01 05:36:00;;;;;;;;;13.25;13.25;;;;;;;;5204132;28;8896;-68
2022/06/01 05:38:31;;;;;;;;;12.00;12.00;;;;;;;;5210873;28;8824;-67
2022/06/01 05:41:21;;;;;;;;;11.75;11.75;;;;;;;;5227958;28;8845;-67
2022/06/01 05:43:52;;;;;;;;;13.25;13.00;;;;;;;;5227933;28;8778;-66
2022/06/01 05:46:23;;;;;;;;;14.00;14.00;;;;;;;;5210988;28;8781;-67
2022/06/01 05:48:54;;;;;;;;;8.25;8.25;;;;;;;;5212082;28;8790;-67
2022/06/01 05:51:28;;;;;;;;;9.25;9.25;;;;;;;;5211164;28;8783;-68
2022/06/01 05:53:59;;;;;;;;;9.00;9.00;;;;;;;;5210453;28;8759;-68
2022/06/01 05:56:30;;;;;;;;;6.75;6.75;;;;;;;;5210472;28;8783;-68
2022/06/01 05:59:02;;;;;;;;;6.50;6.50;;;;;;;;5210465;28;8801;-69
2022/06/01 06:01:52;;;;;;;;;11.75;11.75;;;;;;;;5243616;28;8832;-67
2022/06/01 06:04:43;;;;;;;;;7.00;7.00;;;;;;;;5233872;28;8784;-68
2022/06/01 06:07:14;;;;;;;;;7.25;7.00;;;;;;;;5229689;28;8784;-67
2022/06/01 06:09:45;;;;;;;;;6.33;6.33;;;;;;;;5238614;28;8800;-66
2022/06/01 06:12:16;;;;;;;;;6.25;6.25;;;;;;;;5210040;28;10259;-67
2022/06/01 06:14:49;;;;;;;;;8.75;8.25;;;;;;;;5193792;28;9535;-67
2022/06/01 06:17:38;;;;;;;;;9.50;9.50;;;;;;;;5210162;28;8802;-66
2022/06/01 06:20:10;;;;;;;;;7.33;7.33;;;;;;;;5227631;28;8778;-66
2022/06/01 06:22:41;;;;;;;;;7.00;7.00;;;;;;;;5226501;28;10423;-67
2022/06/01 06:25:12;;;;;;;;;7.00;7.00;;;;;;;;5230654;28;8765;-66
2022/06/01 06:28:03;;;;;;;;;7.50;7.50;;;;;;;;5230767;28;9619;-66
2022/06/01 06:30:35;;;;;;;;;11.50;11.50;;;;;;;;5229363;28;9537;-67
2022/06/01 06:33:07;;;;;;;;;6.25;6.25;;;;;;;;5209584;28;8868;-67
2022/06/01 06:35:38;;;;;;;;;5.25;5.25;;;;;;;;5210380;28;9493;-66
2022/06/01 06:38:28;;;;;;;;;5.75;5.75;;;;;;;;5227466;28;8799;-67
2022/06/01 06:40:59;;;;;;;;;7.25;7.25;;;;;;;;5227318;28;8945;-67
2022/06/01 06:43:33;;;;;;;;;8.00;8.00;;;;;;;;5227112;28;9584;-68
2022/06/01 06:46:23;;;;;;;;;5.00;5.00;;;;;;;;5212174;28;8804;-66
2022/06/01 06:48:54;;;;;;;;;8.00;8.00;;;;;;;;5201714;28;8793;-69
2022/06/01 06:51:25;;;;;;;;;7.50;7.50;;;;;;;;5208665;28;8807;-67
2022/06/01 06:54:15;;;;;;;;;7.50;7.50;;;;;;;;5227119;28;8864;-67
2022/06/01 06:56:46;;;;;;;;;14.25;14.25;;;;;;;;5192949;28;8794;-68
2022/06/01 06:59:17;;;;;;;;;8.00;8.00;;;;;;;;5193596;28;8830;-67
2022/06/01 07:01:48;;;;;;;;;6.50;6.50;;;;;;;;5232339;28;8820;-67
2022/06/01 07:04:19;;;;;;;;;44.75;36.75;;;;;;;;5213397;28;8811;-68
2022/06/01 07:06:50;;;;;;;;;18.50;18.50;;;;;;;;5226408;28;10162;-67
2022/06/01 07:09:21;;;;;;;;;8.25;8.25;;;;;;;;5225187;28;8971;-67
2022/06/01 07:12:11;;;;;;;;;3.75;3.75;;;;;;;;5247281;28;8792;-67
2022/06/01 07:15:00;;;;;;;;;7.50;7.50;;;;;;;;5231858;28;8804;-67
2022/06/01 07:17:31;;;;;;;;;3.00;3.00;;;;;;;;5227600;28;8799;-68
2022/06/01 07:20:03;;;;;;;;;6.75;6.75;;;;;;;;5229157;28;8796;-67
2022/06/01 07:22:34;;;;;;;;;4.00;4.00;;;;;;;;5229434;28;8788;-67
2022/06/01 07:25:09;;;;;;;;;6.00;6.00;;;;;;;;5213652;28;8796;-68
2022/06/01 07:27:59;;;;;;;;;7.50;7.50;;;;;;;;5220549;28;8929;-67
2022/06/01 07:30:30;;;;;;;;;6.00;6.00;;;;;;;;5226254;28;8930;-67
2022/06/01 07:33:20;;;;;;;;;8.00;8.00;;;;;;;;5208677;28;8799;-66
2022/06/01 07:35:52;;;;;;;;;8.00;8.00;;;;;;;;5192980;28;8802;-66
2022/06/01 07:44:06;;;;;;;;;6.00;6.00;;;;;;;;5208151;28;8803;-65
2022/06/01 07:46:38;;;;;;;;;8.75;8.75;;;;;;;;5191766;28;8775;-69
2022/06/01 07:49:09;;;;;;;;;8.25;8.25;;;;;;;;5246474;28;8806;-66
2022/06/01 07:51:40;;;;;;;;;8.50;8.50;;;;;;;;5229137;28;8789;-65
2022/06/01 07:54:11;;;;;;;;;6.75;6.75;;;;;;;;5228764;28;8768;-69
2022/06/01 07:56:42;;;;;;;;;5.00;5.00;;;;;;;;5244726;28;8803;-68
2022/06/01 07:59:14;;;;;;;;;7.00;7.00;;;;;;;;5228888;28;8792;-66
2022/06/01 08:01:45;;;;;;;;;6.75;6.75;;;;;;;;5228545;28;10399;-66
2022/06/01 08:04:16;;;;;;;;;7.00;7.00;;;;;;;;5212031;28;8797;-66
2022/06/01 08:06:47;;;;;;;;;6.33;6.33;;;;;;;;5244511;28;8840;-66
2022/06/01 08:09:19;;;;;;;;;8.00;8.00;;;;;;;;5246515;28;12203;-67
2022/06/01 08:14:39;;;;;;;;;6.75;6.75;;;;;;;;5228672;28;8776;-67
2022/06/01 08:17:10;;;;;;;;;8.00;8.00;;;;;;;;5228526;28;8780;-67
2022/06/01 08:19:41;;;;;;;;;10.67;10.67;;;;;;;;5246117;28;8784;-66
2022/06/01 08:22:31;;;;;;;;;8.00;8.00;;;;;;;;5233617;28;8842;-67
2022/06/01 08:25:21;;;;;;;;;10.00;9.50;;;;;;;;5225749;28;8767;-67
2022/06/01 08:28:10;;;;;;;;;20.25;20.25;;;;;;;;5230114;28;8800;-66
2022/06/01 08:30:42;;;;;;;;;7.00;7.00;;;;;;;;5213838;28;8765;-68
2022/06/01 08:33:13;;;;;;;;;3.50;3.50;;;;;;;;5232935;28;8768;-68
2022/06/01 08:35:45;;;;;;;;;7.00;7.00;;;;;;;;5229151;28;8811;-68
2022/06/01 08:38:16;;;;;;;;;7.50;7.25;;;;;;;;5232467;28;8789;-68
2022/06/01 08:40:56;;;;;;;;;5.00;5.00;;;;;;;;5250491;28;8840;-67
2022/06/01 08:43:30;;;;;;;;;7.75;7.75;;;;;;;;5216083;28;8819;-68
2022/06/01 08:46:02;;;;;;;;;6.00;6.00;;;;;;;;5209902;28;9581;-68
2022/06/01 08:48:34;;;;;;;;;6.25;6.25;;;;;;;;5230247;28;8773;-66
2022/06/01 08:51:06;;;;;;;;;8.25;8.25;;;;;;;;5196105;28;8829;-68
2022/06/01 08:53:37;;;;;;;;;6.50;6.50;;;;;;;;5195971;28;8862;-68
2022/06/01 08:56:14;;;;;;;;;5.00;5.00;;;;;;;;5195136;28;8799;-68
2022/06/01 08:58:47;;;;;;;;;7.00;7.00;;;;;;;;5238456;28;8814;-68
2022/06/01 09:01:26;;;;;;;;;12.00;11.50;;;;;;;;5212141;28;8862;-67
2022/06/01 09:04:07;;;;;;;;;72.80;53.40;;;;;;;;5231960;28;8809;-67
2022/06/01 09:06:49;;;;;;;;;46.00;37.40;;;;;;;;5202470;28;8835;-67
2022/06/01 09:09:26;;;;;;;;;22.25;22.25;;;;;;;;5211304;28;9553;-68
2022/06/01 09:11:57;;;;;;;;;7.50;7.50;;;;;;;;5211747;28;8782;-67
2022/06/01 09:14:35;;;;;;;;;8.33;8.33;;;;;;;;5211416;28;8798;-67
2022/06/01 09:17:06;;;;;;;;;7.00;7.00;;;;;;;;5211126;28;11569;-67
2022/06/01 09:22:49;;;;;;;;;8.75;8.75;;;;;;;;5249461;28;8785;-67
2022/06/01 09:25:27;;;;;;;;;8.00;8.00;;;;;;;;5244621;28;8872;-67
2022/06/01 09:28:01;;;;;;;;;7.50;7.50;;;;;;;;5211611;28;8799;-66
2022/06/01 09:30:36;;;;;;;;;8.75;8.75;;;;;;;;5210851;28;8775;-67
2022/06/01 09:33:28;;;;;;;;;9.25;9.25;;;;;;;;5213724;28;9497;-67
2022/06/01 09:36:08;;;;;;;;;7.50;7.50;;;;;;;;5229496;28;8877;-67
2022/06/01 09:39:01;;;;;;;;;5.50;5.50;;;;;;;;5196997;28;8797;-68
2022/06/01 09:41:50;;;;;;;;;7.75;7.75;;;;;;;;5213393;28;8798;-67
2022/06/01 09:44:31;;;;;;;;;8.00;8.00;;;;;;;;5228377;28;8876;-67
2022/06/01 09:47:03;;;;;;;;;6.50;6.50;;;;;;;;5206499;28;8809;-67
2022/06/01 09:49:42;;;;;;;;;8.00;8.00;;;;;;;;5189776;28;8816;-67
2022/06/01 09:52:26;;;;;;;;;6.00;6.00;;;;;;;;5210203;28;8860;-67
2022/06/01 09:55:06;;;;;;;;;6.00;6.00;;;;;;;;5228255;28;8860;-67
2022/06/01 09:57:38;;;;;;;;;7.50;7.50;;;;;;;;5194037;28;8782;-68
2022/06/01 10:06:18;;;;;;;;;7.50;7.50;;;;;;;;5211336;28;8804;-68
2022/06/01 10:08:59;;;;;;;;;7.00;7.00;;;;;;;;5230888;28;8776;-68
2022/06/01 10:11:43;;;;;;;;;7.00;7.00;;;;;;;;5228952;28;8834;-68
2022/06/01 10:14:20;;;;;;;;;6.75;6.75;;;;;;;;5226757;28;8792;-68
2022/06/01 10:17:08;;;;;;;;;7.25;7.25;;;;;;;;5230760;28;8792;-68
2022/06/01 10:19:50;;;;;;;;;7.00;7.00;;;;;;;;5210792;28;8792;-68
2022/06/01 10:22:41;;;;;;;;;7.50;7.50;;;;;;;;5213741;28;8824;-68
2022/06/01 10:25:15;;;;;;;;;6.00;6.00;;;;;;;;5231092;28;8817;-68
2022/06/01 10:27:58;;;;;;;;;7.00;7.00;;;;;;;;5212030;28;8785;-68
2022/06/01 10:30:32;;;;;;;;;7.00;7.00;;;;;;;;5230355;28;8849;-68
2022/06/01 10:33:25;;;;;;;;;23.25;23.00;;;;;;;;5211135;28;8925;-68
2022/06/01 10:35:59;;;;;;;;;12.50;12.50;;;;;;;;5246367;28;8805;-68
2022/06/01 10:38:35;;;;;;;;;7.00;7.00;;;;;;;;5230390;28;8792;-68
2022/06/01 10:41:14;;;;;;;;;7.00;7.00;;;;;;;;5229977;28;8825;-68
2022/06/01 10:44:30;;;;;;;;;7.50;7.50;;;;;;;;5232927;28;8787;-68
2022/06/01 10:47:23;;;;;;;;;10.00;10.00;;;;;;;;5216825;28;8820;-68
2022/06/01 10:50:05;;;;;;;;;8.00;8.00;;;;;;;;5219483;28;8822;-68
2022/06/01 10:52:36;;;;;;;;;7.00;7.00;;;;;;;;5202367;28;8789;-68
2022/06/01 10:55:11;;;;;;;;;12.00;12.00;;;;;;;;5230033;28;8753;-68
2022/06/01 10:57:47;;;;;;;;;9.00;9.00;;;;;;;;5212984;28;11420;-68
2022/06/01 11:00:20;;;;;;;;;5.00;5.00;;;;;;;;5247780;28;8882;-67
2022/06/01 11:02:51;;;;;;;;;9.00;9.00;;;;;;;;5213187;28;8780;-67
2022/06/01 11:05:25;;;;;;;;;31.00;30.00;;;;;;;;5216454;28;8814;-68
2022/06/01 11:08:15;;;;;;;;;17.50;17.50;;;;;;;;5209158;28;8770;-69
2022/06/01 11:10:59;;;;;;;;;9.25;9.25;;;;;;;;5227191;28;8791;-69
2022/06/01 11:13:45;;;;;;;;;8.25;8.25;;;;;;;;5204963;28;8776;-68
2022/06/01 11:16:25;;;;;;;;;8.00;8.00;;;;;;;;5188397;28;8777;-70
2022/06/01 11:19:04;;;;;;;;;7.25;7.25;;;;;;;;5235948;28;8761;-67
2022/06/01 11:21:52;;;;;;;;;6.75;6.75;;;;;;;;5213457;28;8801;-67
2022/06/01 11:24:35;;;;;;;;;6.75;6.75;;;;;;;;5213286;28;8795;-68
2022/06/01 11:27:13;;;;;;;;;4.50;4.50;;;;;;;;5229637;28;8792;-67
2022/06/01 11:30:02;;;;;;;;;7.25;7.25;;;;;;;;5247591;28;8784;-67
2022/06/01 11:32:40;;;;;;;;;8.25;8.25;;;;;;;;5229170;28;8781;-68
2022/06/01 11:35:14;;;;;;;;;12.00;12.00;;;;;;;;5227649;28;8792;-68
2022/06/01 11:37:49;;;;;;;;;8.50;8.50;;;;;;;;5229248;28;8761;-67
2022/06/01 11:40:26;;;;;;;;;9.75;9.25;;;;;;;;5246789;28;9531;-68
2022/06/01 11:43:02;;;;;;;;;11.50;11.50;;;;;;;;5246805;28;8769;-68
2022/06/01 11:45:38;;;;;;;;;8.00;8.00;;;;;;;;5227493;28;8777;-68
2022/06/01 11:48:10;;;;;;;;;7.00;7.00;;;;;;;;5204294;28;8768;-68
2022/06/01 11:50:55;;;;;;;;;8.75;8.75;;;;;;;;5211655;28;8819;-67
2022/06/01 11:53:32;;;;;;;;;7.50;7.50;;;;;;;;5224818;28;8806;-68
2022/06/01 11:56:25;;;;;;;;;6.25;6.25;;;;;;;;5178576;28;8813;-68
2022/06/01 11:59:02;;;;;;;;;11.00;11.00;;;;;;;;5171181;28;8780;-68
2022/06/01 12:01:45;;;;;;;;;7.00;7.00;;;;;;;;5171329;28;8819;-68
2022/06/01 12:04:29;;;;;;;;;7.00;7.00;;;;;;;;5171378;28;8776;-68
2022/06/01 12:07:09;;;;;;;;;10.50;10.50;;;;;;;;5203964;28;8906;-68
2022/06/01 12:09:43;;;;;;;;;15.25;15.25;;;;;;;;5172154;28;8802;-68
2022/06/01 12:12:26;;;;;;;;;9.75;9.75;;;;;;;;5187629;28;8784;-68
2022/06/01 12:15:04;;;;;;;;;10.00;10.00;;;;;;;;5210825;28;8887;-68
2022/06/01 12:17:35;;;;;;;;;9.00;9.00;;;;;;;;5207842;28;8766;-68
2022/06/01 12:20:25;;;;;;;;;6.75;6.75;;;;;;;;5208013;28;8782;-68
2022/06/01 12:28:55;;;;;;;;;7.50;7.50;;;;;;;;5223455;28;8794;-68
2022/06/01 12:31:35;;;;;;;;;7.25;7.25;;;;;;;;5187064;28;8780;-67
2022/06/01 12:34:27;;;;;;;;;9.00;9.00;;;;;;;;5210480;28;8825;-67
2022/06/01 12:37:05;;;;;;;;;10.50;10.50;;;;;;;;5222381;28;8809;-67
2022/06/01 12:39:39;;;;;;;;;8.00;8.00;;;;;;;;5191128;28;8781;-68
2022/06/01 12:42:17;;;;;;;;;9.75;9.75;;;;;;;;5185900;28;8836;-67
2022/06/01 12:44:50;;;;;;;;;8.00;8.00;;;;;;;;5187316;28;8942;-67
2022/06/01 12:47:36;;;;;;;;;12.50;12.50;;;;;;;;5187052;28;8906;-67
2022/06/01 12:50:17;;;;;;;;;10.00;10.00;;;;;;;;5172015;28;8837;-66
2022/06/01 12:53:07;;;;;;;;;8.00;8.00;;;;;;;;5182876;28;8847;-66
2022/06/01 12:55:38;;;;;;;;;6.25;6.25;;;;;;;;5222923;28;8818;-67
2022/06/01 12:58:15;;;;;;;;;7.75;7.75;;;;;;;;5207462;28;9587;-66
2022/06/01 13:00:48;;;;;;;;;5.50;5.50;;;;;;;;5225167;28;8844;-66
2022/06/01 13:03:43;;;;;;;;;6.25;6.25;;;;;;;;5225234;28;8863;-66
2022/06/01 13:06:39;;;;;;;;;9.50;9.50;;;;;;;;5225079;28;8858;-66
2022/06/01 13:09:12;;;;;;;;;7.75;7.75;;;;;;;;5213808;28;8840;-66
2022/06/01 13:11:45;;;;;;;;;6.75;6.75;;;;;;;;5203079;28;8816;-66
2022/06/01 13:14:35;;;;;;;;;8.25;8.25;;;;;;;;5218470;28;9516;-66
2022/06/01 13:17:12;;;;;;;;;8.25;8.25;;;;;;;;5227353;28;8777;-68
2022/06/01 13:20:04;;;;;;;;;9.50;9.50;;;;;;;;5228354;28;8808;-66
2022/06/01 13:22:53;;;;;;;;;7.00;7.00;;;;;;;;5219806;28;9017;-66
2022/06/01 13:25:28;;;;;;;;;10.00;10.00;;;;;;;;5208166;28;8922;-66
2022/06/01 13:28:17;;;;;;;;;13.25;13.25;;;;;;;;5208531;28;8862;-67
2022/06/01 13:30:49;;;;;;;;;11.50;11.50;;;;;;;;5208291;28;9507;-67
2022/06/01 13:33:38;;;;;;;;;4.00;4.00;;;;;;;;5181002;28;8825;-68
2022/06/01 13:36:24;;;;;;;;;10.25;10.25;;;;;;;;5221841;28;8815;-67
2022/06/01 13:39:06;;;;;;;;;14.50;14.50;;;;;;;;5190322;28;8819;-66
2022/06/01 13:41:51;;;;;;;;;11.50;11.50;;;;;;;;5190414;28;9531;-67
2022/06/01 13:44:44;;;;;;;;;20.25;20.00;;;;;;;;5190200;28;8803;-67
2022/06/01 13:47:18;;;;;;;;;21.00;20.75;;;;;;;;5206588;28;8768;-67
2022/06/01 13:49:51;;;;;;;;;11.75;11.75;;;;;;;;5206959;28;8796;-67
2022/06/01 13:52:25;;;;;;;;;12.00;12.00;;;;;;;;5210221;28;8810;-68
2022/06/01 13:55:07;;;;;;;;;16.00;16.00;;;;;;;;5218722;28;8824;-68
2022/06/01 13:57:45;;;;;;;;;12.75;12.75;;;;;;;;5190032;28;9217;-66
2022/06/01 14:00:24;;;;;;;;;13.50;13.50;;;;;;;;5173812;28;8789;-68
2022/06/01 14:03:02;;;;;;;;;11.00;11.00;;;;;;;;5206001;28;8822;-68
2022/06/01 14:05:33;;;;;;;;;18.75;18.75;;;;;;;;5207908;28;8768;-66
2022/06/01 14:08:08;;;;;;;;;10.50;10.50;;;;;;;;5207117;28;8785;-65
2022/06/01 14:10:52;;;;;;;;;11.25;11.25;;;;;;;;5189306;28;9587;-68
2022/06/01 14:13:25;;;;;;;;;14.50;14.50;;;;;;;;5205884;28;8799;-68
2022/06/01 14:15:56;;;;;;;;;12.50;12.50;;;;;;;;5206878;28;9527;-65
2022/06/01 14:18:29;;;;;;;;;10.25;10.25;;;;;;;;5189360;28;8796;-67
2022/06/01 14:21:00;;;;;;;;;12.50;12.50;;;;;;;;5208293;28;8817;-67
2022/06/01 14:23:50;;;;;;;;;9.25;9.25;;;;;;;;5207122;28;8865;-67
2022/06/01 14:29:29;;;;;;;;;11.25;10.25;;;;;;;;5185778;28;8810;-67
2022/06/01 14:32:01;;;;;;;;;8.00;8.00;;;;;;;;5186483;28;8791;-66
2022/06/01 14:34:50;;;;;;;;;8.00;8.00;;;;;;;;5186202;28;11450;-67
2022/06/01 14:37:21;;;;;;;;;8.75;8.75;;;;;;;;5168617;28;8853;-67
2022/06/01 14:39:52;;;;;;;;;6.00;6.00;;;;;;;;5185231;28;8775;-67
2022/06/01 14:42:24;;;;;;;;;8.67;8.67;;;;;;;;5186100;28;8839;-67
2022/06/01 14:44:55;;;;;;;;;8.75;8.75;;;;;;;;5168265;28;8850;-67
2022/06/01 14:47:26;;;;;;;;;8.00;8.00;;;;;;;;5184764;28;8775;-67
2022/06/01 14:49:57;;;;;;;;;8.00;8.00;;;;;;;;5184737;28;8922;-67
2022/06/01 14:52:46;;;;;;;;;15.00;15.00;;;;;;;;5184786;28;8830;-67
2022/06/01 14:55:17;;;;;;;;;14.33;14.33;;;;;;;;5184346;28;8908;-67
2022/06/01 14:57:49;;;;;;;;;11.00;11.00;;;;;;;;5183170;28;8794;-68
2022/06/01 15:00:20;;;;;;;;;9.75;9.75;;;;;;;;5184221;28;8818;-67
2022/06/01 15:02:53;;;;;;;;;14.75;14.75;;;;;;;;5184086;28;9561;-67
2022/06/01 15:05:25;;;;;;;;;13.75;13.75;;;;;;;;5182896;28;8818;-70
2022/06/01 15:08:15;;;;;;;;;14.00;14.00;;;;;;;;5215845;28;8791;-67
2022/06/01 15:10:47;;;;;;;;;13.25;13.25;;;;;;;;5150407;28;9577;-67
2022/06/01 15:13:17;;;;;;;;;15.00;15.00;;;;;;;;5183873;28;8814;-67
2022/06/01 15:15:48;;;;;;;;;13.00;13.00;;;;;;;;5182717;28;8857;-67
2022/06/01 15:18:19;;;;;;;;;13.33;13.33;;;;;;;;5183524;28;8921;-68
2022/06/01 15:20:50;;;;;;;;;15.33;15.33;;;;;;;;5194630;28;11525;-67
2022/06/01 15:23:21;;;;;;;;;14.67;14.67;;;;;;;;5224517;28;11552;-67
2022/06/01 15:26:11;;;;;;;;;13.75;13.75;;;;;;;;5215735;28;10995;-68
2022/06/01 15:29:01;;;;;;;;;11.25;11.25;;;;;;;;5203976;28;8918;-68
2022/06/01 15:40:36;;;;;;;;;12.00;12.00;;;;;;;;5203857;28;8830;-66
2022/06/01 15:43:07;;;;;;;;;11.00;11.00;;;;;;;;5203265;28;9521;-67
2022/06/01 15:45:40;;;;;;;;;9.00;9.00;;;;;;;;5210713;28;11418;-66
2022/06/01 15:48:13;;;;;;;;;10.00;10.00;;;;;;;;5206549;28;11443;-67
2022/06/01 15:51:03;;;;;;;;;12.50;12.50;;;;;;;;5221170;28;8801;-67
2022/06/01 15:53:34;;;;;;;;;16.50;16.50;;;;;;;;5222850;28;8799;-68
2022/06/01 15:56:05;;;;;;;;;15.67;15.67;;;;;;;;5224260;28;9511;-68
2022/06/01 15:58:36;;;;;;;;;21.50;21.50;;;;;;;;5196819;28;11502;-67
2022/06/01 16:01:07;;;;;;;;;24.00;24.00;;;;;;;;5186973;28;8814;-67
2022/06/01 16:03:57;;;;;;;;;31.00;29.75;;;;;;;;5206454;28;9503;-67
2022/06/01 16:06:28;;;;;;;;;24.75;24.75;;;;;;;;5189180;28;8839;-67
2022/06/01 16:09:17;;;;;;;;;19.00;19.00;;;;;;;;5205297;28;8807;-67
2022/06/01 16:11:48;;;;;;;;;19.50;19.25;;;;;;;;5204998;28;8808;-67
2022/06/01 16:14:19;;;;;;;;;23.50;23.50;;;;;;;;5205039;28;8830;-67
2022/06/01 16:16:50;;;;;;;;;20.00;20.00;;;;;;;;5204821;28;8861;-67
2022/06/01 16:19:21;;;;;;;;;24.00;24.00;;;;;;;;5203798;28;9487;-67